sensor_id;sensor_type;location;lat;lon;timestamp;pressure;altitude;pressure_sealevel;temperature;humidity
12949;BME280;6539;49.476;8.484;2023-02-21T00:00:55;101077.66;;;11.36;60.93
12949;BME280;6539;49.476;8.484;2023-02-21T00:03:39;101078.84;;;11.38;60.82
12949;BME280;6539;49.476;8.484;2023-02-21T00:06:24;101077.66;;;11.36;60.48
12949;BME280;6539;49.476;8.484;2023-02-21T00:09:10;101074.50;;;11.30;60.50
12949;BME280;6539;49.476;8.484;2023-02-21T00:11:55;101063.53;;;11.23;61.14
12949;BME280;6539;49.476;8.484;2023-02-21T00:14:39;101055.69;;;11.25;61.50
12949;BME280;6539;49.476;8.484;2023-02-21T00:17:23;101069.78;;;11.24;61.41
12949;BME280;6539;49.476;8.484;2023-02-21T00:20:10;101058.03;;;11.13;61.71
12949;BME280;6539;49.476;8.484;2023-02-21T00:22:54;101058.81;;;11.17;61.59
12949;BME280;6539;49.476;8.484;2023-02-21T00:25:38;101049.78;;;11.20;61.11
12949;BME280;6539;49.476;8.484;2023-02-21T00:28:23;101061.97;;;11.19;61.54
12949;BME280;6539;49.476;8.484;2023-02-21T00:31:07;101050.16;;;11.22;61.45
12949;BME280;6539;49.476;8.484;2023-02-21T00:33:51;101050.56;;;11.24;60.78
12949;BME280;6539;49.476;8.484;2023-02-21T00:36:35;101038.00;;;11.30;60.97
12949;BME280;6539;49.476;8.484;2023-02-21T00:39:19;101043.09;;;11.31;60.80
12949;BME280;6539;49.476;8.484;2023-02-21T00:42:04;101046.66;;;11.32;61.36
12949;BME280;6539;49.476;8.484;2023-02-21T00:44:48;101037.59;;;11.42;61.39
12949;BME280;6539;49.476;8.484;2023-02-21T00:47:34;101043.09;;;11.42;60.41
12949;BME280;6539;49.476;8.484;2023-02-21T00:50:21;101040.72;;;11.37;60.81
12949;BME280;6539;49.476;8.484;2023-02-21T00:53:05;101037.19;;;11.36;60.58
12949;BME280;6539;49.476;8.484;2023-02-21T00:55:52;101040.72;;;11.37;60.49
12949;BME280;6539;49.476;8.484;2023-02-21T00:58:36;101048.59;;;11.35;60.30
12949;BME280;6539;49.476;8.484;2023-02-21T01:01:23;101043.88;;;11.28;60.72
12949;BME280;6539;49.476;8.484;2023-02-21T01:04:07;101035.66;;;11.25;60.64
12949;BME280;6539;49.476;8.484;2023-02-21T01:06:54;101033.69;;;11.22;61.21
12949;BME280;6539;49.476;8.484;2023-02-21T01:09:41;101035.25;;;11.23;60.81
12949;BME280;6539;49.476;8.484;2023-02-21T01:12:30;101043.13;;;11.21;61.33
12949;BME280;6539;49.476;8.484;2023-02-21T01:15:15;101036.03;;;11.20;61.23
12949;BME280;6539;49.476;8.484;2023-02-21T01:17:59;101031.72;;;11.15;61.31
12949;BME280;6539;49.476;8.484;2023-02-21T01:20:46;101035.28;;;11.12;61.33
12949;BME280;6539;49.476;8.484;2023-02-21T01:23:31;101036.03;;;11.09;61.34
12949;BME280;6539;49.476;8.484;2023-02-21T01:26:15;101040.75;;;11.05;61.39
12949;BME280;6539;49.476;8.484;2023-02-21T01:29:00;101046.25;;;11.09;61.78
12949;BME280;6539;49.476;8.484;2023-02-21T01:31:44;101043.09;;;11.07;61.67
12949;BME280;6539;49.476;8.484;2023-02-21T01:34:31;101041.94;;;11.08;61.21
12949;BME280;6539;49.476;8.484;2023-02-21T01:37:15;101050.97;;;11.05;61.34
12949;BME280;6539;49.476;8.484;2023-02-21T01:40:02;101042.31;;;11.03;61.53
12949;BME280;6539;49.476;8.484;2023-02-21T01:42:49;101044.28;;;10.99;61.30
12949;BME280;6539;49.476;8.484;2023-02-21T01:45:42;101037.63;;;10.96;61.48
12949;BME280;6539;49.476;8.484;2023-02-21T01:48:29;101049.00;;;10.88;61.53
12949;BME280;6539;49.476;8.484;2023-02-21T01:51:23;101037.59;;;10.86;61.91
12949;BME280;6539;49.476;8.484;2023-02-21T01:54:09;101034.84;;;10.79;61.74
12949;BME280;6539;49.476;8.484;2023-02-21T01:56:58;101032.91;;;10.76;61.92
12949;BME280;6539;49.476;8.484;2023-02-21T01:59:44;101032.88;;;10.72;62.24
12949;BME280;6539;49.476;8.484;2023-02-21T02:03:06;101036.00;;;10.56;62.64
12949;BME280;6539;49.476;8.484;2023-02-21T02:06:00;101019.53;;;10.49;62.48
12949;BME280;6539;49.476;8.484;2023-02-21T02:08:47;101021.84;;;10.40;62.60
12949;BME280;6539;49.476;8.484;2023-02-21T02:27:48;101021.75;;;10.12;63.78
12949;BME280;6539;49.476;8.484;2023-02-21T02:30:39;101012.69;;;10.08;63.50
12949;BME280;6539;49.476;8.484;2023-02-21T02:35:53;101012.38;;;10.13;63.93
12949;BME280;6539;49.476;8.484;2023-02-21T02:38:50;101011.56;;;10.16;63.61
12949;BME280;6539;49.476;8.484;2023-02-21T02:45:03;101004.13;;;10.20;63.19
12949;BME280;6539;49.476;8.484;2023-02-21T02:47:39;101001.75;;;10.12;63.58
12949;BME280;6539;49.476;8.484;2023-02-21T02:50:12;101003.34;;;10.16;63.42
12949;BME280;6539;49.476;8.484;2023-02-21T02:52:50;101001.78;;;10.19;63.67
12949;BME280;6539;49.476;8.484;2023-02-21T02:55:48;101004.13;;;10.17;63.69
12949;BME280;6539;49.476;8.484;2023-02-21T02:58:18;101012.00;;;10.22;63.44
12949;BME280;6539;49.476;8.484;2023-02-21T03:01:03;101008.06;;;10.23;63.19
12949;BME280;6539;49.476;8.484;2023-02-21T03:17:58;101011.47;;;9.95;63.87
12949;BME280;6539;49.476;8.484;2023-02-21T03:20:28;101016.22;;;10.02;64.11
12949;BME280;6539;49.476;8.484;2023-02-21T03:23:04;101017.75;;;9.99;64.03
12949;BME280;6539;49.476;8.484;2023-02-21T03:25:33;101021.69;;;9.98;63.61
12949;BME280;6539;49.476;8.484;2023-02-21T03:28:01;101019.31;;;9.96;63.96
12949;BME280;6539;49.476;8.484;2023-02-21T03:30:28;101016.97;;;9.95;64.05
12949;BME280;6539;49.476;8.484;2023-02-21T03:32:55;101012.25;;;9.95;64.38
12949;BME280;6539;49.476;8.484;2023-02-21T03:35:29;101018.53;;;9.96;64.09
12949;BME280;6539;49.476;8.484;2023-02-21T03:37:56;101016.94;;;9.91;64.17
12949;BME280;6539;49.476;8.484;2023-02-21T03:40:32;101021.66;;;9.91;64.13
12949;BME280;6539;49.476;8.484;2023-02-21T03:43:01;101033.41;;;9.95;64.00
12949;BME280;6539;49.476;8.484;2023-02-21T03:45:27;101019.31;;;9.93;63.75
12949;BME280;6539;49.476;8.484;2023-02-21T03:47:55;101024.00;;;9.89;63.90
12949;BME280;6539;49.476;8.484;2023-02-21T03:50:21;101016.53;;;9.86;63.94
12949;BME280;6539;49.476;8.484;2023-02-21T03:52:46;101019.97;;;9.69;64.69
12949;BME280;6539;49.476;8.484;2023-02-21T03:55:12;101017.22;;;9.69;64.51
12949;BME280;6539;49.476;8.484;2023-02-21T03:57:40;101011.34;;;9.67;64.94
12949;BME280;6539;49.476;8.484;2023-02-21T04:00:07;101010.59;;;9.77;64.07
12949;BME280;6539;49.476;8.484;2023-02-21T04:02:33;101016.47;;;9.75;64.59
12949;BME280;6539;49.476;8.484;2023-02-21T04:05:01;101014.53;;;9.79;64.44
12949;BME280;6539;49.476;8.484;2023-02-21T04:07:29;101016.13;;;9.84;64.60
12949;BME280;6539;49.476;8.484;2023-02-21T04:09:57;101010.63;;;9.84;64.83
12949;BME280;6539;49.476;8.484;2023-02-21T04:12:24;101007.94;;;9.91;64.41
12949;BME280;6539;49.476;8.484;2023-02-21T04:14:52;101007.56;;;9.96;64.41
12949;BME280;6539;49.476;8.484;2023-02-21T04:17:21;101002.84;;;9.93;64.53
12949;BME280;6539;49.476;8.484;2023-02-21T04:19:49;100997.38;;;9.96;64.38
12949;BME280;6539;49.476;8.484;2023-02-21T04:22:21;101002.09;;;9.99;64.32
12949;BME280;6539;49.476;8.484;2023-02-21T04:24:46;101006.41;;;10.01;64.74
12949;BME280;6539;49.476;8.484;2023-02-21T04:27:14;101008.72;;;9.98;64.35
12949;BME280;6539;49.476;8.484;2023-02-21T04:29:44;100995.44;;;10.01;64.22
12949;BME280;6539;49.476;8.484;2023-02-21T04:32:12;101002.09;;;9.96;64.37
12949;BME280;6539;49.476;8.484;2023-02-21T04:34:38;101002.09;;;9.96;64.46
12949;BME280;6539;49.476;8.484;2023-02-21T04:37:04;101001.69;;;9.94;64.92
12949;BME280;6539;49.476;8.484;2023-02-21T04:39:30;100996.97;;;9.94;64.50
12949;BME280;6539;49.476;8.484;2023-02-21T04:41:55;101004.34;;;9.83;64.46
12949;BME280;6539;49.476;8.484;2023-02-21T04:44:21;101004.34;;;9.76;64.96
12949;BME280;6539;49.476;8.484;2023-02-21T04:46:49;101004.34;;;9.76;65.41
12949;BME280;6539;49.476;8.484;2023-02-21T04:49:17;101005.13;;;9.77;65.11
12949;BME280;6539;49.476;8.484;2023-02-21T04:51:48;100994.53;;;9.75;64.93
12949;BME280;6539;49.476;8.484;2023-02-21T04:54:16;101003.16;;;9.70;65.31
12949;BME280;6539;49.476;8.484;2023-02-21T04:56:42;100988.59;;;9.63;64.74
12949;BME280;6539;49.476;8.484;2023-02-21T04:59:10;100987.38;;;9.50;64.94
12949;BME280;6539;49.476;8.484;2023-02-21T05:01:35;100990.81;;;9.36;64.68
12949;BME280;6539;49.476;8.484;2023-02-21T05:04:02;100998.59;;;9.31;65.22
12949;BME280;6539;49.476;8.484;2023-02-21T05:06:30;100989.19;;;9.28;65.52
12949;BME280;6539;49.476;8.484;2023-02-21T05:08:57;100982.91;;;9.28;65.83
12949;BME280;6539;49.476;8.484;2023-02-21T05:11:27;100993.88;;;9.28;65.55
12949;BME280;6539;49.476;8.484;2023-02-21T05:13:53;100990.38;;;9.31;64.96
12949;BME280;6539;49.476;8.484;2023-02-21T05:16:19;100989.19;;;9.28;65.39
12949;BME280;6539;49.476;8.484;2023-02-21T05:18:48;100984.50;;;9.25;64.78
12949;BME280;6539;49.476;8.484;2023-02-21T05:21:15;100986.44;;;9.28;65.21
12949;BME280;6539;49.476;8.484;2023-02-21T05:23:46;100984.50;;;9.29;65.55
12949;BME280;6539;49.476;8.484;2023-02-21T05:26:42;100994.66;;;9.28;65.49
12949;BME280;6539;49.476;8.484;2023-02-21T05:29:08;100986.44;;;9.28;65.04
12949;BME280;6539;49.476;8.484;2023-02-21T05:31:35;100995.47;;;9.29;65.32
12949;BME280;6539;49.476;8.484;2023-02-21T05:34:02;100991.53;;;9.26;65.21
12949;BME280;6539;49.476;8.484;2023-02-21T05:36:28;100998.53;;;9.23;65.34
12949;BME280;6539;49.476;8.484;2023-02-21T05:38:56;100999.69;;;9.19;65.48
12949;BME280;6539;49.476;8.484;2023-02-21T05:41:24;100998.94;;;9.22;65.31
12949;BME280;6539;49.476;8.484;2023-02-21T05:43:50;101006.63;;;9.02;65.78
12949;BME280;6539;49.476;8.484;2023-02-21T05:46:26;101004.63;;;8.99;66.34
12949;BME280;6539;49.476;8.484;2023-02-21T05:48:53;101008.94;;;8.97;66.24
12949;BME280;6539;49.476;8.484;2023-02-21T05:51:22;101000.31;;;8.98;66.69
12949;BME280;6539;49.476;8.484;2023-02-21T05:53:51;101005.81;;;8.98;66.40
12949;BME280;6539;49.476;8.484;2023-02-21T05:56:18;101018.31;;;8.99;66.32
12949;BME280;6539;49.476;8.484;2023-02-21T05:58:44;101017.56;;;9.02;66.53
12949;BME280;6539;49.476;8.484;2023-02-21T06:01:12;101007.72;;;8.94;66.50
12949;BME280;6539;49.476;8.484;2023-02-21T06:03:38;101009.25;;;8.88;66.86
12949;BME280;6539;49.476;8.484;2023-02-21T06:06:10;101010.75;;;8.82;67.29
12949;BME280;6539;49.476;8.484;2023-02-21T06:08:46;101000.97;;;8.81;67.64
12949;BME280;6539;49.476;8.484;2023-02-21T06:11:25;101008.41;;;8.84;67.63
12949;BME280;6539;49.476;8.484;2023-02-21T06:13:56;101010.47;;;8.94;67.01
12949;BME280;6539;49.476;8.484;2023-02-21T06:16:25;101006.53;;;8.92;66.86
12949;BME280;6539;49.476;8.484;2023-02-21T06:18:56;101009.22;;;8.85;67.15
12949;BME280;6539;49.476;8.484;2023-02-21T06:21:22;101008.38;;;8.77;67.66
12949;BME280;6539;49.476;8.484;2023-02-21T06:23:48;101006.78;;;8.76;67.54
12949;BME280;6539;49.476;8.484;2023-02-21T06:26:18;101009.84;;;8.71;67.68
12949;BME280;6539;49.476;8.484;2023-02-21T06:28:45;101003.66;;;8.74;68.03
12949;BME280;6539;49.476;8.484;2023-02-21T06:31:11;101009.03;;;8.67;67.95
12949;BME280;6539;49.476;8.484;2023-02-21T06:33:37;101006.66;;;8.62;68.09
12949;BME280;6539;49.476;8.484;2023-02-21T06:36:11;101004.28;;;8.61;68.21
12949;BME280;6539;49.476;8.484;2023-02-21T06:38:39;101009.03;;;8.67;68.37
12949;BME280;6539;49.476;8.484;2023-02-21T06:41:07;101014.97;;;8.73;67.91
12949;BME280;6539;49.476;8.484;2023-02-21T06:43:33;101015.78;;;8.73;67.71
12949;BME280;6539;49.476;8.484;2023-02-21T06:46:02;101013.44;;;8.75;67.88
12949;BME280;6539;49.476;8.484;2023-02-21T06:48:30;101007.97;;;8.75;67.83
12949;BME280;6539;49.476;8.484;2023-02-21T06:50:57;101004.47;;;8.78;67.54
12949;BME280;6539;49.476;8.484;2023-02-21T06:53:25;101007.19;;;8.75;67.60
12949;BME280;6539;49.476;8.484;2023-02-21T06:55:51;101013.78;;;8.70;68.09
12949;BME280;6539;49.476;8.484;2023-02-21T06:58:19;101020.88;;;8.75;67.85
12949;BME280;6539;49.476;8.484;2023-02-21T07:00:47;101018.16;;;8.78;67.42
12949;BME280;6539;49.476;8.484;2023-02-21T07:03:13;101015.03;;;8.80;67.59
12949;BME280;6539;49.476;8.484;2023-02-21T07:05:43;101011.16;;;8.84;67.62
12949;BME280;6539;49.476;8.484;2023-02-21T07:08:12;101013.53;;;8.86;67.54
12949;BME280;6539;49.476;8.484;2023-02-21T07:10:43;101009.66;;;8.90;67.66
12949;BME280;6539;49.476;8.484;2023-02-21T07:13:08;101006.94;;;8.90;67.56
12949;BME280;6539;49.476;8.484;2023-02-21T07:15:39;101012.00;;;8.92;67.63
12949;BME280;6539;49.476;8.484;2023-02-21T07:18:04;101015.16;;;8.97;67.53
12949;BME280;6539;49.476;8.484;2023-02-21T07:20:32;101008.56;;;9.02;67.15
12949;BME280;6539;49.476;8.484;2023-02-21T07:22:59;101004.72;;;9.10;67.27
12949;BME280;6539;49.476;8.484;2023-02-21T07:25:28;101001.66;;;9.18;66.99
12949;BME280;6539;49.476;8.484;2023-02-21T07:27:54;101000.94;;;9.25;66.60
12949;BME280;6539;49.476;8.484;2023-02-21T07:30:22;101000.06;;;9.17;66.92
12949;BME280;6539;49.476;8.484;2023-02-21T07:32:48;101001.56;;;9.08;67.61
12949;BME280;6539;49.476;8.484;2023-02-21T07:35:16;101005.16;;;9.19;67.70
12949;BME280;6539;49.476;8.484;2023-02-21T07:37:42;100999.34;;;9.28;67.28
12949;BME280;6539;49.476;8.484;2023-02-21T07:40:08;101004.47;;;9.29;67.37
12949;BME280;6539;49.476;8.484;2023-02-21T07:42:41;101002.50;;;9.30;67.54
12949;BME280;6539;49.476;8.484;2023-02-21T07:45:11;101005.69;;;9.39;67.87
12949;BME280;6539;49.476;8.484;2023-02-21T07:47:41;101012.34;;;9.38;67.72
12949;BME280;6539;49.476;8.484;2023-02-21T07:50:09;101004.16;;;9.45;67.85
12949;BME280;6539;49.476;8.484;2023-02-21T07:52:35;101013.97;;;9.46;67.93
12949;BME280;6539;49.476;8.484;2023-02-21T07:55:01;101011.28;;;9.53;68.20
12949;BME280;6539;49.476;8.484;2023-02-21T07:57:26;101013.41;;;9.91;66.76
12949;BME280;6539;49.476;8.484;2023-02-21T07:59:54;101006.97;;;10.59;64.49
12949;BME280;6539;49.476;8.484;2023-02-21T08:02:20;101006.19;;;11.32;62.44
12949;BME280;6539;49.476;8.484;2023-02-21T08:04:51;101008.63;;;12.27;59.59
12949;BME280;6539;49.476;8.484;2023-02-21T08:07:21;101007.53;;;13.28;56.13
12949;BME280;6539;49.476;8.484;2023-02-21T08:09:50;100998.25;;;14.16;53.34
12949;BME280;6539;49.476;8.484;2023-02-21T08:12:18;100995.31;;;15.06;50.94
12949;BME280;6539;49.476;8.484;2023-02-21T08:14:46;100997.66;;;15.74;47.78
12949;BME280;6539;49.476;8.484;2023-02-21T08:17:12;101004.47;;;16.09;45.84
12949;BME280;6539;49.476;8.484;2023-02-21T08:19:39;101010.75;;;16.64;45.30
12949;BME280;6539;49.476;8.484;2023-02-21T08:22:07;101010.00;;;16.96;43.38
12949;BME280;6539;49.476;8.484;2023-02-21T08:24:32;101008.94;;;17.22;42.60
12949;BME280;6539;49.476;8.484;2023-02-21T08:26:58;101007.41;;;17.66;45.43
12949;BME280;6539;49.476;8.484;2023-02-21T08:29:24;101008.44;;;18.13;40.80
12949;BME280;6539;49.476;8.484;2023-02-21T08:31:53;101008.31;;;18.29;40.59
12949;BME280;6539;49.476;8.484;2023-02-21T08:34:21;101011.25;;;18.64;40.15
12949;BME280;6539;49.476;8.484;2023-02-21T08:36:51;101009.47;;;18.57;40.06
12949;BME280;6539;49.476;8.484;2023-02-21T08:39:17;101005.47;;;18.71;39.61
12949;BME280;6539;49.476;8.484;2023-02-21T08:41:46;101005.34;;;18.74;38.58
12949;BME280;6539;49.476;8.484;2023-02-21T08:44:15;101001.59;;;18.56;39.34
12949;BME280;6539;49.476;8.484;2023-02-21T08:46:42;100998.78;;;18.81;38.87
12949;BME280;6539;49.476;8.484;2023-02-21T08:49:11;101002.63;;;19.21;38.30
12949;BME280;6539;49.476;8.484;2023-02-21T08:51:39;100994.66;;;19.45;37.58
12949;BME280;6539;49.476;8.484;2023-02-21T08:54:06;100995.03;;;19.68;37.44
12949;BME280;6539;49.476;8.484;2023-02-21T08:56:35;100995.41;;;19.80;36.64
12949;BME280;6539;49.476;8.484;2023-02-21T08:59:03;100993.75;;;20.13;36.34
12949;BME280;6539;49.476;8.484;2023-02-21T09:01:34;100992.41;;;20.48;35.93
12949;BME280;6539;49.476;8.484;2023-02-21T09:04:02;100990.00;;;20.68;35.42
12949;BME280;6539;49.476;8.484;2023-02-21T09:06:31;100994.34;;;20.69;35.49
12949;BME280;6539;49.476;8.484;2023-02-21T09:09:02;100993.94;;;20.89;35.11
12949;BME280;6539;49.476;8.484;2023-02-21T09:11:30;100989.47;;;20.91;34.69
12949;BME280;6539;49.476;8.484;2023-02-21T09:13:55;100996.88;;;20.76;35.16
12949;BME280;6539;49.476;8.484;2023-02-21T09:16:22;100987.91;;;20.99;34.83
12949;BME280;6539;49.476;8.484;2023-02-21T09:18:59;100992.16;;;21.04;34.81
12949;BME280;6539;49.476;8.484;2023-02-21T09:21:26;100984.56;;;21.32;34.35
12949;BME280;6539;49.476;8.484;2023-02-21T09:23:56;100986.44;;;21.25;33.86
12949;BME280;6539;49.476;8.484;2023-02-21T09:26:24;100984.09;;;21.33;33.95
12949;BME280;6539;49.476;8.484;2023-02-21T09:28:56;100975.13;;;21.56;34.23
12949;BME280;6539;49.476;8.484;2023-02-21T09:31:23;100971.53;;;21.83;33.82
12949;BME280;6539;49.476;8.484;2023-02-21T09:33:51;100969.50;;;22.02;33.16
12949;BME280;6539;49.476;8.484;2023-02-21T09:36:20;100965.44;;;21.93;33.09
12949;BME280;6539;49.476;8.484;2023-02-21T09:38:50;100964.56;;;21.69;33.07
12949;BME280;6539;49.476;8.484;2023-02-21T09:41:16;100966.56;;;21.60;33.27
12949;BME280;6539;49.476;8.484;2023-02-21T09:43:47;100967.03;;;21.58;33.31
12949;BME280;6539;49.476;8.484;2023-02-21T09:48:55;100960.47;;;21.97;33.09
12949;BME280;6539;49.476;8.484;2023-02-21T09:51:24;100958.31;;;21.92;33.10
12949;BME280;6539;49.476;8.484;2023-02-21T09:53:55;100953.19;;;21.82;33.04
12949;BME280;6539;49.476;8.484;2023-02-21T09:56:38;100954.28;;;21.66;32.90
12949;BME280;6539;49.476;8.484;2023-02-21T09:59:12;100955.88;;;21.49;33.80
12949;BME280;6539;49.476;8.484;2023-02-21T10:05:03;100951.50;;;21.03;34.51
12949;BME280;6539;49.476;8.484;2023-02-21T10:10:44;100951.25;;;20.79;34.83
12949;BME280;6539;49.476;8.484;2023-02-21T10:13:42;100951.16;;;20.43;35.41
12949;BME280;6539;49.476;8.484;2023-02-21T10:16:38;100949.13;;;20.34;35.70
12949;BME280;6539;49.476;8.484;2023-02-21T10:19:25;100962.75;;;20.72;35.42
12949;BME280;6539;49.476;8.484;2023-02-21T10:21:59;100951.03;;;20.46;35.88
12949;BME280;6539;49.476;8.484;2023-02-21T10:24:30;100946.84;;;20.51;35.40
12949;BME280;6539;49.476;8.484;2023-02-21T10:29:50;100952.41;;;20.42;36.00
12949;BME280;6539;49.476;8.484;2023-02-21T10:32:21;100947.16;;;20.44;35.69
12949;BME280;6539;49.476;8.484;2023-02-21T10:34:48;100941.16;;;20.24;36.15
12949;BME280;6539;49.476;8.484;2023-02-21T10:37:44;100945.78;;;20.58;35.94
12949;BME280;6539;49.476;8.484;2023-02-21T10:40:56;100940.97;;;20.58;35.73
12949;BME280;6539;49.476;8.484;2023-02-21T10:43:34;100944.69;;;20.46;35.92
12949;BME280;6539;49.476;8.484;2023-02-21T10:48:40;100940.19;;;20.48;35.67
12949;BME280;6539;49.476;8.484;2023-02-21T10:51:15;100936.53;;;20.70;35.22
12949;BME280;6539;49.476;8.484;2023-02-21T10:53:44;100935.94;;;20.84;35.10
12949;BME280;6539;49.476;8.484;2023-02-21T11:03:59;100929.75;;;20.98;35.04
12949;BME280;6539;49.476;8.484;2023-02-21T11:06:34;100928.50;;;20.99;35.17
12949;BME280;6539;49.476;8.484;2023-02-21T11:09:03;100926.78;;;20.92;35.10
12949;BME280;6539;49.476;8.484;2023-02-21T11:14:35;100920.28;;;20.95;35.19
12949;BME280;6539;49.476;8.484;2023-02-21T11:17:14;100912.59;;;21.17;34.75
12949;BME280;6539;49.476;8.484;2023-02-21T11:19:56;100901.69;;;21.28;34.58
12949;BME280;6539;49.476;8.484;2023-02-21T11:22:49;100903.56;;;21.41;34.49
12949;BME280;6539;49.476;8.484;2023-02-21T11:25:28;100903.88;;;21.43;34.68
12949;BME280;6539;49.476;8.484;2023-02-21T11:28:18;100901.66;;;20.83;34.96
12949;BME280;6539;49.476;8.484;2023-02-21T11:31:05;100893.94;;;20.87;35.42
12949;BME280;6539;49.476;8.484;2023-02-21T11:33:37;100891.69;;;20.55;35.54
12949;BME280;6539;49.476;8.484;2023-02-21T11:36:15;100886.13;;;20.73;35.90
12949;BME280;6539;49.476;8.484;2023-02-21T11:38:58;100873.56;;;20.50;35.76
12949;BME280;6539;49.476;8.484;2023-02-21T11:44:02;100875.28;;;20.57;35.92
12949;BME280;6539;49.476;8.484;2023-02-21T11:46:56;100866.75;;;20.70;35.59
12949;BME280;6539;49.476;8.484;2023-02-21T11:54:59;100851.72;;;20.76;35.53
12949;BME280;6539;49.476;8.484;2023-02-21T11:58:04;100845.50;;;20.81;36.07
12949;BME280;6539;49.476;8.484;2023-02-21T12:00:56;100845.22;;;20.61;35.90
12949;BME280;6539;49.476;8.484;2023-02-21T12:03:50;100839.16;;;20.63;35.78
12949;BME280;6539;49.476;8.484;2023-02-21T12:17:51;100826.53;;;19.08;37.86
12949;BME280;6539;49.476;8.484;2023-02-21T12:23:28;100804.09;;;19.55;37.64
12949;BME280;6539;49.476;8.484;2023-02-21T12:26:17;100794.00;;;19.48;37.63
12949;BME280;6539;49.476;8.484;2023-02-21T12:28:57;100800.59;;;19.63;37.75
12949;BME280;6539;49.476;8.484;2023-02-21T12:40:06;100776.72;;;19.32;38.08
12949;BME280;6539;49.476;8.484;2023-02-21T12:51:27;100760.38;;;19.12;38.38
12949;BME280;6539;49.476;8.484;2023-02-21T12:57:10;100742.66;;;19.58;37.69
12949;BME280;6539;49.476;8.484;2023-02-21T13:06:24;100738.56;;;19.72;37.64
12949;BME280;6539;49.476;8.484;2023-02-21T13:12:02;100735.84;;;19.50;37.92
12949;BME280;6539;49.476;8.484;2023-02-21T13:17:10;100729.13;;;19.08;38.65
12949;BME280;6539;49.476;8.484;2023-02-21T13:20:07;100730.09;;;18.92;39.30
12949;BME280;6539;49.476;8.484;2023-02-21T13:26:56;100714.56;;;19.04;38.86
12949;BME280;6539;49.476;8.484;2023-02-21T13:29:28;100717.53;;;18.88;39.01
12949;BME280;6539;49.476;8.484;2023-02-21T13:32:03;100700.94;;;18.75;39.37
12949;BME280;6539;49.476;8.484;2023-02-21T13:34:42;100697.56;;;18.59;39.79
12949;BME280;6539;49.476;8.484;2023-02-21T13:37:26;100687.66;;;18.58;39.79
12949;BME280;6539;49.476;8.484;2023-02-21T13:40:04;100685.38;;;18.44;40.18
12949;BME280;6539;49.476;8.484;2023-02-21T13:42:36;100672.59;;;18.46;39.96
12949;BME280;6539;49.476;8.484;2023-02-21T13:45:25;100673.44;;;18.56;39.86
12949;BME280;6539;49.476;8.484;2023-02-21T13:53:29;100670.09;;;18.61;39.35
12949;BME280;6539;49.476;8.484;2023-02-21T13:58:41;100664.72;;;18.45;39.60
12949;BME280;6539;49.476;8.484;2023-02-21T14:03:40;100654.66;;;18.25;39.40
12949;BME280;6539;49.476;8.484;2023-02-21T14:08:49;100646.75;;;18.02;39.92
12949;BME280;6539;49.476;8.484;2023-02-21T14:11:27;100648.88;;;17.98;39.74
12949;BME280;6539;49.476;8.484;2023-02-21T14:13:56;100643.09;;;17.93;39.79
12949;BME280;6539;49.476;8.484;2023-02-21T14:16:51;100650.69;;;17.80;40.16
12949;BME280;6539;49.476;8.484;2023-02-21T14:22:04;100635.81;;;17.74;40.42
12949;BME280;6539;49.476;8.484;2023-02-21T14:24:45;100636.72;;;17.71;40.33
12949;BME280;6539;49.476;8.484;2023-02-21T14:32:49;100632.03;;;17.80;40.07
12949;BME280;6539;49.476;8.484;2023-02-21T14:37:58;100621.47;;;17.75;40.34
12949;BME280;6539;49.476;8.484;2023-02-21T14:40:42;100624.16;;;17.79;40.16
12949;BME280;6539;49.476;8.484;2023-02-21T14:43:30;100624.91;;;17.79;40.06
12949;BME280;6539;49.476;8.484;2023-02-21T14:52:13;100616.75;;;17.63;40.21
12949;BME280;6539;49.476;8.484;2023-02-21T14:55:36;100610.53;;;17.59;40.24
12949;BME280;6539;49.476;8.484;2023-02-21T15:01:09;100611.22;;;17.50;40.46
12949;BME280;6539;49.476;8.484;2023-02-21T15:07:32;100605.31;;;17.48;40.97
12949;BME280;6539;49.476;8.484;2023-02-21T15:12:52;100597.53;;;17.43;40.87
12949;BME280;6539;49.476;8.484;2023-02-21T15:18:08;100593.00;;;17.37;40.78
12949;BME280;6539;49.476;8.484;2023-02-21T15:20:41;100591.78;;;17.38;40.94
12949;BME280;6539;49.476;8.484;2023-02-21T15:23:21;100595.22;;;17.42;40.42
12949;BME280;6539;49.476;8.484;2023-02-21T15:25:57;100578.44;;;17.45;40.60
12949;BME280;6539;49.476;8.484;2023-02-21T15:28:29;100580.69;;;17.38;40.70
12949;BME280;6539;49.476;8.484;2023-02-21T15:31:08;100588.44;;;17.43;40.68
12949;BME280;6539;49.476;8.484;2023-02-21T15:33:39;100578.47;;;17.33;40.83
12949;BME280;6539;49.476;8.484;2023-02-21T15:36:20;100572.69;;;17.27;41.03
12949;BME280;6539;49.476;8.484;2023-02-21T15:39:02;100572.25;;;17.29;41.24
12949;BME280;6539;49.476;8.484;2023-02-21T15:44:19;100571.13;;;17.39;40.32
12949;BME280;6539;49.476;8.484;2023-02-21T15:49:28;100565.16;;;17.28;40.83
12949;BME280;6539;49.476;8.484;2023-02-21T15:51:55;100569.16;;;17.27;40.95
12949;BME280;6539;49.476;8.484;2023-02-21T15:54:31;100561.38;;;17.22;40.70
12949;BME280;6539;49.476;8.484;2023-02-21T15:57:22;100557.97;;;17.18;41.08
12949;BME280;6539;49.476;8.484;2023-02-21T16:00:24;100559.16;;;17.17;41.09
12949;BME280;6539;49.476;8.484;2023-02-21T16:02:50;100565.63;;;17.14;41.26
12949;BME280;6539;49.476;8.484;2023-02-21T16:05:31;100552.31;;;17.09;41.14
12949;BME280;6539;49.476;8.484;2023-02-21T16:08:04;100550.78;;;17.08;41.44
12949;BME280;6539;49.476;8.484;2023-02-21T16:10:31;100551.97;;;17.07;41.26
12949;BME280;6539;49.476;8.484;2023-02-21T16:13:00;100550.78;;;17.08;41.20
12949;BME280;6539;49.476;8.484;2023-02-21T16:15:30;100551.97;;;17.07;41.28
12949;BME280;6539;49.476;8.484;2023-02-21T16:18:00;100547.66;;;17.06;41.53
12949;BME280;6539;49.476;8.484;2023-02-21T16:20:39;100547.66;;;17.06;41.39
12949;BME280;6539;49.476;8.484;2023-02-21T16:28:30;100544.34;;;16.98;41.36
12949;BME280;6539;49.476;8.484;2023-02-21T16:31:04;100550.00;;;16.95;41.59
12949;BME280;6539;49.476;8.484;2023-02-21T16:33:31;100548.56;;;16.90;41.44
12949;BME280;6539;49.476;8.484;2023-02-21T16:36:06;100558.88;;;16.90;41.51
12949;BME280;6539;49.476;8.484;2023-02-21T16:38:35;100546.66;;;16.87;41.48